sensor_id;sensor_type;location;lat;lon;timestamp;P1;durP1;ratioP1;P2;durP2;ratioP2
13090;SDS011;6611;52.604;13.438;2023-09-12T00:04:27;9.70;;;7.90;;
13090;SDS011;6611;52.604;13.438;2023-09-12T00:09:29;9.43;;;8.43;;
13090;SDS011;6611;52.604;13.438;2023-09-12T00:14:32;9.47;;;8.07;;
13090;SDS011;6611;52.604;13.438;2023-09-12T00:19:34;13.90;;;9.47;;
13090;SDS011;6611;52.604;13.438;2023-09-12T00:24:35;11.23;;;8.70;;
13090;SDS011;6611;52.604;13.438;2023-09-12T00:29:39;13.70;;;9.43;;
13090;SDS011;6611;52.604;13.438;2023-09-12T00:34:41;9.07;;;8.17;;
13090;SDS011;6611;52.604;13.438;2023-09-12T00:39:42;11.43;;;9.20;;
13090;SDS011;6611;52.604;13.438;2023-09-12T00:44:45;9.97;;;8.43;;
13090;SDS011;6611;52.604;13.438;2023-09-12T00:49:47;10.67;;;8.37;;
13090;SDS011;6611;52.604;13.438;2023-09-12T00:54:50;8.97;;;8.07;;
13090;SDS011;6611;52.604;13.438;2023-09-12T00:59:53;10.90;;;8.70;;
13090;SDS011;6611;52.604;13.438;2023-09-12T01:04:55;10.60;;;8.83;;
13090;SDS011;6611;52.604;13.438;2023-09-12T01:09:57;12.40;;;8.90;;
13090;SDS011;6611;52.604;13.438;2023-09-12T01:15:00;10.33;;;8.70;;
13090;SDS011;6611;52.604;13.438;2023-09-12T01:20:03;13.50;;;8.33;;
13090;SDS011;6611;52.604;13.438;2023-09-12T01:25:28;12.63;;;8.33;;
13090;SDS011;6611;52.604;13.438;2023-09-12T01:30:45;9.70;;;8.70;;
13090;SDS011;6611;52.604;13.438;2023-09-12T01:35:50;11.33;;;8.50;;
13090;SDS011;6611;52.604;13.438;2023-09-12T01:40:51;10.07;;;9.07;;
13090;SDS011;6611;52.604;13.438;2023-09-12T01:45:57;11.23;;;8.73;;
13090;SDS011;6611;52.604;13.438;2023-09-12T01:51:00;10.47;;;8.83;;
13090;SDS011;6611;52.604;13.438;2023-09-12T01:56:03;12.63;;;8.47;;
13090;SDS011;6611;52.604;13.438;2023-09-12T02:01:06;12.40;;;8.50;;
13090;SDS011;6611;52.604;13.438;2023-09-12T02:06:07;10.10;;;8.97;;
13090;SDS011;6611;52.604;13.438;2023-09-12T02:11:09;10.27;;;8.60;;
13090;SDS011;6611;52.604;13.438;2023-09-12T02:16:13;10.73;;;8.50;;
13090;SDS011;6611;52.604;13.438;2023-09-12T02:21:14;10.70;;;8.40;;
13090;SDS011;6611;52.604;13.438;2023-09-12T02:26:16;9.17;;;8.27;;
13090;SDS011;6611;52.604;13.438;2023-09-12T02:31:19;12.10;;;9.60;;
13090;SDS011;6611;52.604;13.438;2023-09-12T02:36:21;11.87;;;9.37;;
13090;SDS011;6611;52.604;13.438;2023-09-12T02:41:22;9.57;;;8.57;;
13090;SDS011;6611;52.604;13.438;2023-09-12T02:46:25;10.50;;;8.60;;
13090;SDS011;6611;52.604;13.438;2023-09-12T02:51:27;9.90;;;8.50;;
13090;SDS011;6611;52.604;13.438;2023-09-12T02:56:29;11.07;;;8.67;;
13090;SDS011;6611;52.604;13.438;2023-09-12T03:01:32;10.00;;;8.20;;
13090;SDS011;6611;52.604;13.438;2023-09-12T03:06:34;10.20;;;9.03;;
13090;SDS011;6611;52.604;13.438;2023-09-12T03:11:35;9.43;;;8.43;;
13090;SDS011;6611;52.604;13.438;2023-09-12T03:16:38;11.13;;;9.33;;
13090;SDS011;6611;52.604;13.438;2023-09-12T03:21:40;13.20;;;8.60;;
13090;SDS011;6611;52.604;13.438;2023-09-12T03:26:42;10.97;;;9.30;;
13090;SDS011;6611;52.604;13.438;2023-09-12T03:31:45;12.50;;;9.73;;
13090;SDS011;6611;52.604;13.438;2023-09-12T03:36:46;11.60;;;10.30;;
13090;SDS011;6611;52.604;13.438;2023-09-12T03:41:48;12.63;;;10.00;;
13090;SDS011;6611;52.604;13.438;2023-09-12T03:46:51;13.67;;;9.77;;
13090;SDS011;6611;52.604;13.438;2023-09-12T03:51:53;12.70;;;10.03;;
13090;SDS011;6611;52.604;13.438;2023-09-12T03:56:54;11.07;;;9.90;;
13090;SDS011;6611;52.604;13.438;2023-09-12T04:01:57;13.60;;;10.73;;
13090;SDS011;6611;52.604;13.438;2023-09-12T04:06:59;13.90;;;10.13;;
13090;SDS011;6611;52.604;13.438;2023-09-12T04:12:01;12.87;;;10.17;;
13090;SDS011;6611;52.604;13.438;2023-09-12T04:17:04;13.67;;;9.87;;
13090;SDS011;6611;52.604;13.438;2023-09-12T04:22:06;13.30;;;10.80;;
13090;SDS011;6611;52.604;13.438;2023-09-12T04:27:07;13.07;;;11.00;;
13090;SDS011;6611;52.604;13.438;2023-09-12T04:32:10;10.80;;;9.63;;
13090;SDS011;6611;52.604;13.438;2023-09-12T04:37:12;12.23;;;9.63;;
13090;SDS011;6611;52.604;13.438;2023-09-12T04:42:14;13.53;;;10.10;;
13090;SDS011;6611;52.604;13.438;2023-09-12T04:47:16;13.07;;;10.60;;
13090;SDS011;6611;52.604;13.438;2023-09-12T04:52:18;15.03;;;10.03;;
13090;SDS011;6611;52.604;13.438;2023-09-12T04:57:20;12.03;;;10.83;;
13090;SDS011;6611;52.604;13.438;2023-09-12T05:02:23;12.90;;;10.93;;
13090;SDS011;6611;52.604;13.438;2023-09-12T05:07:25;14.57;;;10.70;;
13090;SDS011;6611;52.604;13.438;2023-09-12T05:12:26;12.43;;;10.90;;
13090;SDS011;6611;52.604;13.438;2023-09-12T05:17:29;13.80;;;10.77;;
13090;SDS011;6611;52.604;13.438;2023-09-12T05:22:31;13.67;;;11.33;;
13090;SDS011;6611;52.604;13.438;2023-09-12T05:27:33;11.20;;;10.00;;
13090;SDS011;6611;52.604;13.438;2023-09-12T05:32:36;13.83;;;11.93;;
13090;SDS011;6611;52.604;13.438;2023-09-12T05:37:37;14.57;;;12.23;;
13090;SDS011;6611;52.604;13.438;2023-09-12T05:42:39;13.40;;;11.17;;
13090;SDS011;6611;52.604;13.438;2023-09-12T05:47:42;14.27;;;11.40;;
13090;SDS011;6611;52.604;13.438;2023-09-12T05:52:43;14.57;;;12.10;;
13090;SDS011;6611;52.604;13.438;2023-09-12T05:57:45;12.73;;;11.40;;
13090;SDS011;6611;52.604;13.438;2023-09-12T06:02:49;13.07;;;11.47;;
13090;SDS011;6611;52.604;13.438;2023-09-12T06:07:50;13.30;;;11.50;;
13090;SDS011;6611;52.604;13.438;2023-09-12T06:12:52;19.67;;;12.57;;
13090;SDS011;6611;52.604;13.438;2023-09-12T06:17:55;14.27;;;12.10;;
13090;SDS011;6611;52.604;13.438;2023-09-12T06:22:57;12.80;;;10.97;;
13090;SDS011;6611;52.604;13.438;2023-09-12T06:27:59;16.20;;;10.73;;
13090;SDS011;6611;52.604;13.438;2023-09-12T06:33:03;15.33;;;11.90;;
13090;SDS011;6611;52.604;13.438;2023-09-12T06:38:04;12.93;;;10.83;;
13090;SDS011;6611;52.604;13.438;2023-09-12T06:43:06;15.13;;;11.27;;
13090;SDS011;6611;52.604;13.438;2023-09-12T06:48:09;16.30;;;11.70;;
13090;SDS011;6611;52.604;13.438;2023-09-12T06:53:11;12.93;;;11.63;;
13090;SDS011;6611;52.604;13.438;2023-09-12T06:58:12;15.60;;;11.33;;
13090;SDS011;6611;52.604;13.438;2023-09-12T07:03:15;14.27;;;10.17;;
13090;SDS011;6611;52.604;13.438;2023-09-12T07:08:17;12.53;;;10.73;;
13090;SDS011;6611;52.604;13.438;2023-09-12T07:13:19;14.03;;;10.00;;
13090;SDS011;6611;52.604;13.438;2023-09-12T07:18:21;15.00;;;10.00;;
13090;SDS011;6611;52.604;13.438;2023-09-12T07:23:23;11.77;;;9.30;;
13090;SDS011;6611;52.604;13.438;2023-09-12T07:28:25;14.50;;;9.47;;
13090;SDS011;6611;52.604;13.438;2023-09-12T07:33:29;11.77;;;8.17;;
13090;SDS011;6611;52.604;13.438;2023-09-12T07:38:30;13.10;;;8.67;;
13090;SDS011;6611;52.604;13.438;2023-09-12T07:43:32;15.27;;;8.53;;
13090;SDS011;6611;52.604;13.438;2023-09-12T07:48:35;14.85;;;8.05;;
13090;SDS011;6611;52.604;13.438;2023-09-12T07:53:37;12.20;;;7.88;;
13090;SDS011;6611;52.604;13.438;2023-09-12T07:58:38;9.38;;;7.15;;
13090;SDS011;6611;52.604;13.438;2023-09-12T08:03:42;11.07;;;7.60;;
13090;SDS011;6611;52.604;13.438;2023-09-12T08:08:44;10.45;;;6.80;;
13090;SDS011;6611;52.604;13.438;2023-09-12T08:13:48;13.40;;;7.15;;
13090;SDS011;6611;52.604;13.438;2023-09-12T08:18:51;11.73;;;6.70;;
13090;SDS011;6611;52.604;13.438;2023-09-12T08:23:53;9.32;;;6.90;;
13090;SDS011;6611;52.604;13.438;2023-09-12T08:28:55;7.18;;;5.75;;
13090;SDS011;6611;52.604;13.438;2023-09-12T08:33:58;11.60;;;5.95;;
13090;SDS011;6611;52.604;13.438;2023-09-12T08:38:59;11.18;;;5.13;;
13090;SDS011;6611;52.604;13.438;2023-09-12T08:44:01;10.85;;;5.60;;
13090;SDS011;6611;52.604;13.438;2023-09-12T08:49:07;7.97;;;4.57;;
13090;SDS011;6611;52.604;13.438;2023-09-12T08:54:09;9.43;;;5.50;;
13090;SDS011;6611;52.604;13.438;2023-09-12T08:59:11;7.43;;;4.53;;
13090;SDS011;6611;52.604;13.438;2023-09-12T09:04:14;8.70;;;5.03;;
13090;SDS011;6611;52.604;13.438;2023-09-12T09:09:16;7.93;;;5.03;;
13090;SDS011;6611;52.604;13.438;2023-09-12T09:14:19;5.85;;;4.38;;
13090;SDS011;6611;52.604;13.438;2023-09-12T09:19:22;10.20;;;4.80;;
13090;SDS011;6611;52.604;13.438;2023-09-12T09:24:40;7.38;;;4.90;;
13090;SDS011;6611;52.604;13.438;2023-09-12T09:29:46;10.55;;;5.57;;
13090;SDS011;6611;52.604;13.438;2023-09-12T09:34:50;11.70;;;6.03;;
13090;SDS011;6611;52.604;13.438;2023-09-12T09:39:54;11.43;;;5.97;;
13090;SDS011;6611;52.604;13.438;2023-09-12T09:44:55;12.68;;;6.00;;
13090;SDS011;6611;52.604;13.438;2023-09-12T09:49:59;9.13;;;5.40;;
13090;SDS011;6611;52.604;13.438;2023-09-12T09:55:00;11.75;;;6.18;;
13090;SDS011;6611;52.604;13.438;2023-09-12T10:00:04;10.20;;;6.40;;
13090;SDS011;6611;52.604;13.438;2023-09-12T10:05:10;12.80;;;6.55;;
13090;SDS011;6611;52.604;13.438;2023-09-12T10:10:14;12.00;;;6.82;;
13090;SDS011;6611;52.604;13.438;2023-09-12T10:15:18;10.80;;;6.65;;
13090;SDS011;6611;52.604;13.438;2023-09-12T10:20:25;10.95;;;7.15;;
13090;SDS011;6611;52.604;13.438;2023-09-12T10:25:36;10.60;;;6.13;;
13090;SDS011;6611;52.604;13.438;2023-09-12T10:30:38;13.07;;;6.07;;
13090;SDS011;6611;52.604;13.438;2023-09-12T10:35:42;8.40;;;5.90;;
13090;SDS011;6611;52.604;13.438;2023-09-12T10:40:46;9.82;;;6.20;;
13090;SDS011;6611;52.604;13.438;2023-09-12T10:45:49;10.10;;;5.53;;
13090;SDS011;6611;52.604;13.438;2023-09-12T10:50:56;12.43;;;5.97;;
13090;SDS011;6611;52.604;13.438;2023-09-12T10:55:59;12.10;;;5.88;;
13090;SDS011;6611;52.604;13.438;2023-09-12T11:01:21;8.52;;;5.28;;
13090;SDS011;6611;52.604;13.438;2023-09-12T11:06:29;12.18;;;5.50;;
13090;SDS011;6611;52.604;13.438;2023-09-12T11:11:31;9.57;;;5.55;;
13090;SDS011;6611;52.604;13.438;2023-09-12T11:16:32;8.45;;;5.35;;
13090;SDS011;6611;52.604;13.438;2023-09-12T11:21:36;9.73;;;4.78;;
13090;SDS011;6611;52.604;13.438;2023-09-12T11:26:54;8.57;;;5.05;;
13090;SDS011;6611;52.604;13.438;2023-09-12T11:31:57;8.10;;;5.22;;
13090;SDS011;6611;52.604;13.438;2023-09-12T11:37:01;8.52;;;4.95;;
13090;SDS011;6611;52.604;13.438;2023-09-12T11:42:05;6.32;;;4.90;;
13090;SDS011;6611;52.604;13.438;2023-09-12T11:47:14;10.98;;;5.10;;
13090;SDS011;6611;52.604;13.438;2023-09-12T11:52:18;5.72;;;4.20;;
13090;SDS011;6611;52.604;13.438;2023-09-12T11:57:21;9.75;;;4.75;;
13090;SDS011;6611;52.604;13.438;2023-09-12T12:02:23;6.88;;;4.35;;
13090;SDS011;6611;52.604;13.438;2023-09-12T12:07:26;7.03;;;4.60;;
13090;SDS011;6611;52.604;13.438;2023-09-12T12:12:28;6.30;;;4.07;;
13090;SDS011;6611;52.604;13.438;2023-09-12T12:17:30;9.82;;;4.35;;
13090;SDS011;6611;52.604;13.438;2023-09-12T12:22:32;8.05;;;4.32;;
13090;SDS011;6611;52.604;13.438;2023-09-12T12:27:37;9.90;;;4.25;;
13090;SDS011;6611;52.604;13.438;2023-09-12T12:32:39;7.10;;;3.97;;
13090;SDS011;6611;52.604;13.438;2023-09-12T12:37:43;7.30;;;3.78;;
13090;SDS011;6611;52.604;13.438;2023-09-12T12:42:45;6.70;;;4.03;;
13090;SDS011;6611;52.604;13.438;2023-09-12T12:47:50;6.10;;;3.55;;
13090;SDS011;6611;52.604;13.438;2023-09-12T12:52:54;6.32;;;3.65;;
13090;SDS011;6611;52.604;13.438;2023-09-12T12:57:56;6.55;;;4.07;;
13090;SDS011;6611;52.604;13.438;2023-09-12T13:02:58;8.70;;;4.80;;
13090;SDS011;6611;52.604;13.438;2023-09-12T13:08:01;6.85;;;4.18;;
13090;SDS011;6611;52.604;13.438;2023-09-12T13:13:02;7.13;;;3.97;;
13090;SDS011;6611;52.604;13.438;2023-09-12T13:18:04;7.75;;;4.25;;
13090;SDS011;6611;52.604;13.438;2023-09-12T13:23:08;7.28;;;4.15;;
13090;SDS011;6611;52.604;13.438;2023-09-12T13:28:09;9.07;;;4.05;;
13090;SDS011;6611;52.604;13.438;2023-09-12T13:33:11;7.55;;;4.05;;
13090;SDS011;6611;52.604;13.438;2023-09-12T13:38:15;8.60;;;4.38;;
13090;SDS011;6611;52.604;13.438;2023-09-12T13:43:18;9.18;;;4.57;;
13090;SDS011;6611;52.604;13.438;2023-09-12T13:48:20;12.02;;;4.50;;
13090;SDS011;6611;52.604;13.438;2023-09-12T13:53:23;7.05;;;4.95;;
13090;SDS011;6611;52.604;13.438;2023-09-12T13:58:25;11.02;;;5.40;;
13090;SDS011;6611;52.604;13.438;2023-09-12T14:03:26;13.48;;;6.35;;
13090;SDS011;6611;52.604;13.438;2023-09-12T14:08:29;9.82;;;4.85;;
13090;SDS011;6611;52.604;13.438;2023-09-12T14:13:31;7.75;;;4.20;;
13090;SDS011;6611;52.604;13.438;2023-09-12T14:18:32;6.97;;;4.50;;
13090;SDS011;6611;52.604;13.438;2023-09-12T14:23:35;9.55;;;4.50;;
13090;SDS011;6611;52.604;13.438;2023-09-12T14:28:37;5.47;;;4.03;;
13090;SDS011;6611;52.604;13.438;2023-09-12T14:33:39;7.55;;;4.05;;
13090;SDS011;6611;52.604;13.438;2023-09-12T14:38:42;8.00;;;4.53;;
13090;SDS011;6611;52.604;13.438;2023-09-12T14:43:44;5.53;;;3.25;;
13090;SDS011;6611;52.604;13.438;2023-09-12T14:48:45;5.60;;;2.85;;
13090;SDS011;6611;52.604;13.438;2023-09-12T14:53:48;6.30;;;2.75;;
13090;SDS011;6611;52.604;13.438;2023-09-12T14:58:50;4.18;;;2.78;;
13090;SDS011;6611;52.604;13.438;2023-09-12T15:03:52;3.03;;;2.72;;
13090;SDS011;6611;52.604;13.438;2023-09-12T15:08:55;3.10;;;2.50;;
13090;SDS011;6611;52.604;13.438;2023-09-12T15:13:56;3.85;;;2.47;;
13090;SDS011;6611;52.604;13.438;2023-09-12T15:18:58;3.42;;;2.30;;
13090;SDS011;6611;52.604;13.438;2023-09-12T15:24:01;3.10;;;2.25;;
13090;SDS011;6611;52.604;13.438;2023-09-12T15:29:03;2.42;;;2.10;;
13090;SDS011;6611;52.604;13.438;2023-09-12T15:34:07;3.83;;;2.55;;
13090;SDS011;6611;52.604;13.438;2023-09-12T15:39:10;2.97;;;1.80;;
13090;SDS011;6611;52.604;13.438;2023-09-12T15:44:12;3.65;;;2.22;;
13090;SDS011;6611;52.604;13.438;2023-09-12T15:49:14;3.42;;;2.08;;
13090;SDS011;6611;52.604;13.438;2023-09-12T15:54:17;3.22;;;2.15;;
13090;SDS011;6611;52.604;13.438;2023-09-12T15:59:19;1.67;;;1.58;;
13090;SDS011;6611;52.604;13.438;2023-09-12T16:04:20;2.03;;;1.83;;
13090;SDS011;6611;52.604;13.438;2023-09-12T16:09:23;2.63;;;1.88;;
13090;SDS011;6611;52.604;13.438;2023-09-12T16:14:25;2.60;;;1.90;;
13090;SDS011;6611;52.604;13.438;2023-09-12T16:19:27;3.63;;;2.50;;
13090;SDS011;6611;52.604;13.438;2023-09-12T16:24:30;3.88;;;1.92;;
13090;SDS011;6611;52.604;13.438;2023-09-12T16:29:31;1.77;;;1.63;;
13090;SDS011;6611;52.604;13.438;2023-09-12T16:34:33;2.97;;;1.73;;
13090;SDS011;6611;52.604;13.438;2023-09-12T16:39:36;2.33;;;1.90;;
13090;SDS011;6611;52.604;13.438;2023-09-12T16:44:42;1.75;;;1.58;;
13090;SDS011;6611;52.604;13.438;2023-09-12T16:49:43;3.22;;;1.50;;
13090;SDS011;6611;52.604;13.438;2023-09-12T16:54:47;2.88;;;1.88;;
13090;SDS011;6611;52.604;13.438;2023-09-12T16:59:49;3.38;;;1.77;;
13090;SDS011;6611;52.604;13.438;2023-09-12T17:04:51;3.05;;;1.90;;
13090;SDS011;6611;52.604;13.438;2023-09-12T17:09:54;3.58;;;2.10;;
13090;SDS011;6611;52.604;13.438;2023-09-12T17:14:55;3.40;;;2.10;;
13090;SDS011;6611;52.604;13.438;2023-09-12T17:19:58;2.70;;;1.80;;
13090;SDS011;6611;52.604;13.438;2023-09-12T17:25:01;3.57;;;2.20;;
13090;SDS011;6611;52.604;13.438;2023-09-12T17:30:03;3.53;;;1.90;;
13090;SDS011;6611;52.604;13.438;2023-09-12T17:35:06;2.22;;;1.73;;
13090;SDS011;6611;52.604;13.438;2023-09-12T17:40:10;2.30;;;1.90;;
13090;SDS011;6611;52.604;13.438;2023-09-12T17:45:12;2.33;;;2.00;;
13090;SDS011;6611;52.604;13.438;2023-09-12T17:50:14;3.27;;;1.70;;
13090;SDS011;6611;52.604;13.438;2023-09-12T17:55:17;2.27;;;1.73;;
13090;SDS011;6611;52.604;13.438;2023-09-12T18:00:19;3.37;;;1.80;;
13090;SDS011;6611;52.604;13.438;2023-09-12T18:05:26;3.00;;;1.80;;
13090;SDS011;6611;52.604;13.438;2023-09-12T18:10:29;2.77;;;1.90;;
13090;SDS011;6611;52.604;13.438;2023-09-12T18:15:31;1.80;;;1.70;;
13090;SDS011;6611;52.604;13.438;2023-09-12T18:20:33;2.07;;;1.53;;
13090;SDS011;6611;52.604;13.438;2023-09-12T18:25:36;2.63;;;1.83;;
13090;SDS011;6611;52.604;13.438;2023-09-12T18:30:37;1.73;;;1.50;;
13090;SDS011;6611;52.604;13.438;2023-09-12T18:35:39;1.93;;;1.70;;
13090;SDS011;6611;52.604;13.438;2023-09-12T18:40:42;5.57;;;1.90;;
13090;SDS011;6611;52.604;13.438;2023-09-12T18:45:44;3.37;;;1.80;;
13090;SDS011;6611;52.604;13.438;2023-09-12T18:50:45;2.00;;;1.60;;
13090;SDS011;6611;52.604;13.438;2023-09-12T18:55:49;2.83;;;1.60;;
13090;SDS011;6611;52.604;13.438;2023-09-12T19:00:51;2.63;;;1.93;;
13090;SDS011;6611;52.604;13.438;2023-09-12T19:05:53;2.10;;;1.90;;
13090;SDS011;6611;52.604;13.438;2023-09-12T19:10:58;3.07;;;2.13;;
13090;SDS011;6611;52.604;13.438;2023-09-12T19:15:59;2.47;;;2.00;;
13090;SDS011;6611;52.604;13.438;2023-09-12T19:21:01;2.00;;;1.80;;
13090;SDS011;6611;52.604;13.438;2023-09-12T19:26:06;5.00;;;2.30;;
13090;SDS011;6611;52.604;13.438;2023-09-12T19:31:08;2.40;;;2.20;;
13090;SDS011;6611;52.604;13.438;2023-09-12T19:36:14;2.33;;;1.93;;
13090;SDS011;6611;52.604;13.438;2023-09-12T19:41:18;1.53;;;1.43;;
13090;SDS011;6611;52.604;13.438;2023-09-12T19:46:19;2.97;;;1.80;;
13090;SDS011;6611;52.604;13.438;2023-09-12T19:51:21;2.57;;;2.10;;
13090;SDS011;6611;52.604;13.438;2023-09-12T19:56:24;3.27;;;2.30;;
13090;SDS011;6611;52.604;13.438;2023-09-12T20:01:26;3.87;;;2.03;;
13090;SDS011;6611;52.604;13.438;2023-09-12T20:06:27;2.90;;;2.20;;
13090;SDS011;6611;52.604;13.438;2023-09-12T20:11:31;4.40;;;2.40;;
13090;SDS011;6611;52.604;13.438;2023-09-12T20:16:32;3.03;;;2.20;;
13090;SDS011;6611;52.604;13.438;2023-09-12T20:21:34;2.10;;;1.80;;
13090;SDS011;6611;52.604;13.438;2023-09-12T20:26:38;2.63;;;1.80;;
13090;SDS011;6611;52.604;13.438;2023-09-12T20:31:39;4.13;;;2.30;;
13090;SDS011;6611;52.604;13.438;2023-09-12T20:36:41;2.50;;;2.30;;
13090;SDS011;6611;52.604;13.438;2023-09-12T20:41:44;2.50;;;2.30;;
13090;SDS011;6611;52.604;13.438;2023-09-12T20:46:46;3.27;;;2.40;;
13090;SDS011;6611;52.604;13.438;2023-09-12T20:51:48;4.17;;;2.57;;
13090;SDS011;6611;52.604;13.438;2023-09-12T20:56:52;2.47;;;2.27;;
13090;SDS011;6611;52.604;13.438;2023-09-12T21:01:53;4.27;;;2.20;;
13090;SDS011;6611;52.604;13.438;2023-09-12T21:06:55;2.50;;;2.30;;
13090;SDS011;6611;52.604;13.438;2023-09-12T21:12:00;3.80;;;2.70;;
13090;SDS011;6611;52.604;13.438;2023-09-12T21:17:04;3.27;;;2.50;;
13090;SDS011;6611;52.604;13.438;2023-09-12T21:22:05;2.67;;;2.43;;
13090;SDS011;6611;52.604;13.438;2023-09-12T21:27:08;2.40;;;2.20;;
13090;SDS011;6611;52.604;13.438;2023-09-12T21:32:10;2.40;;;2.20;;
13090;SDS011;6611;52.604;13.438;2023-09-12T21:37:12;6.17;;;2.40;;
13090;SDS011;6611;52.604;13.438;2023-09-12T21:42:15;3.40;;;2.60;;
13090;SDS011;6611;52.604;13.438;2023-09-12T21:47:19;2.70;;;2.50;;
13090;SDS011;6611;52.604;13.438;2023-09-12T21:52:20;3.10;;;2.50;;
13090;SDS011;6611;52.604;13.438;2023-09-12T21:57:24;4.90;;;2.43;;
13090;SDS011;6611;52.604;13.438;2023-09-12T22:02:26;3.30;;;2.60;;
13090;SDS011;6611;52.604;13.438;2023-09-12T22:07:28;2.73;;;2.53;;
13090;SDS011;6611;52.604;13.438;2023-09-12T22:12:32;3.20;;;2.60;;
13090;SDS011;6611;52.604;13.438;2023-09-12T22:17:34;3.80;;;2.80;;
13090;SDS011;6611;52.604;13.438;2023-09-12T22:22:36;3.57;;;2.70;;
13090;SDS011;6611;52.604;13.438;2023-09-12T22:27:39;2.70;;;2.50;;
13090;SDS011;6611;52.604;13.438;2023-09-12T22:32:42;3.30;;;2.63;;
13090;SDS011;6611;52.604;13.438;2023-09-12T22:37:44;3.17;;;2.70;;
13090;SDS011;6611;52.604;13.438;2023-09-12T22:42:47;3.33;;;2.77;;
13090;SDS011;6611;52.604;13.438;2023-09-12T22:47:49;3.97;;;3.13;;
13090;SDS011;6611;52.604;13.438;2023-09-12T22:52:50;3.00;;;2.23;;
13090;SDS011;6611;52.604;13.438;2023-09-12T22:57:53;3.70;;;2.70;;
13090;SDS011;6611;52.604;13.438;2023-09-12T23:02:55;3.30;;;3.00;;
13090;SDS011;6611;52.604;13.438;2023-09-12T23:07:56;4.20;;;2.93;;
13090;SDS011;6611;52.604;13.438;2023-09-12T23:12:59;3.87;;;3.17;;
13090;SDS011;6611;52.604;13.438;2023-09-12T23:18:01;3.43;;;3.13;;
13090;SDS011;6611;52.604;13.438;2023-09-12T23:23:03;3.30;;;2.90;;
13090;SDS011;6611;52.604;13.438;2023-09-12T23:28:06;3.70;;;3.30;;
13090;SDS011;6611;52.604;13.438;2023-09-12T23:33:08;3.40;;;2.97;;
13090;SDS011;6611;52.604;13.438;2023-09-12T23:38:10;3.30;;;3.00;;
13090;SDS011;6611;52.604;13.438;2023-09-12T23:43:13;3.63;;;3.33;;
13090;SDS011;6611;52.604;13.438;2023-09-12T23:48:15;4.67;;;3.53;;
13090;SDS011;6611;52.604;13.438;2023-09-12T23:53:16;5.47;;;3.70;;
13090;SDS011;6611;52.604;13.438;2023-09-12T23:58:21;3.90;;;3.47;;
